Skip Navigation Links
NOAA logo - Click to go to the NOAA homepage
NOAA's National Weather Service
Alaska Aviation Weather Unit
  NWS logo - Click to go to the NWS homepage
Left Navbar Graphic     17 AKDT = 01 GMT

   
NOAA is celebrating 200 years of science, service, and stewardship. Visit the NOAA 200th celebration Web site to learn more.
USA.gov is the U.S. Government's official Web portal to all Federal, state and local government Web resources and services.
Facebook
NWS on Facebook

Important Change Regarding the AAWU Web Presence

 

Over the last several months, the AAWU has been working to navigate its webpages to a nationally supported server. Security, as well as other needs, have necessitated the change.  In the process, we have made an effort to enhance the functionality of our website, as well as some of our products. As of June 27, 2017, aawu.arh.noaa.gov will be discontinued. The new AAWU web address is weather.gov/aawu. It is now live and will run in-parallel with the old site until it is discontinued. Please send any feedback or questions regarding the new webpages to nws.ar.aawu.webauthors@noaa.gov.  Thank you for your patience during this time of transition.
AAWU Home :: Display TAF Add Bookmark
TAF CYQH 252338Z 2600/2612 15006KT P6SM SCT060 BKN100 TEMPO 2600/2606
     P6SM -SHRA BKN040 OVC080
     BECMG 2601/2603 VRB03KT
    FM260600 VRB03KT P6SM SCT040 BKN080 TEMPO 2606/2612 P6SM -SHRA
     FEW020 BKN040 OVC080
    RMK NXT FCST BY 260600Z=

METAR CYQH 251900Z VRB03KT 30SM SCT035TCU BKN090 OVC200 17/08 A2988 RMK TCU3AC2CI3 SLP128 DENSITY ALT 3100FT= METAR CYQH 252000Z VRB02KT 30SM SCT045TCU BKN110 OVC210 18/07 A2986 RMK TCU3AC3CI2 SLP124 DENSITY ALT 3200FT= SPECI CYQH 252043Z 29010KT 200V290 30SM SCT045TCU SCT110 BKN210 17/07 A2984 RMK TCU3AC1CI2 WSHFT 2034 SLP118 DENSITY ALT 3200FT= METAR CYQH 252100Z 29008KT 30SM SCT055TCU SCT090 BKN210 19/06 A2984 RMK TCU3AC1CI1 SLP116 DENSITY ALT 3400FT= METAR CYQH 252200Z 27011KT 20SM VCSH BKN055TCU BKN120 OVC210 17/07 A2983 RMK TCU5AC2CI1 SLP117 DENSITY ALT 3100FT= SPECI CYQH 252212Z 23007KT 210V280 20SM -SHRA BKN060TCU BKN120 16/07 A2984 RMK TCU6AC1 SLP119 DENSITY ALT 3100FT= METAR CYQH 252300Z 12006KT 20SM -SHRA BKN060TCU BKN120 BKN230 15/09 A2982 RMK TCU5AC1CI1 SLP113 DENSITY ALT 3000FT= SPECI CYQH 252308Z 15006KT 100V170 20SM VCSH BKN060TCU BKN120 BKN230 16/09 A2982 RMK TCU5AC1CI1 SLP111 DENSITY ALT 3100FT= METAR CYQH 260000Z 12005KT 30SM SCT060TCU BKN130 BKN230 19/08 A2980 RMK TCU4AC2CI1 CLIMAT 18.6/15.4/0.5 MM SLP103 DENSITY ALT 3400FT= METAR CYQH 260100Z VRB02KT 30SM SCT030TCU BKN062TCU BKN130 BKN230 20/04 A2977 RMK TCU3TCU2AC1CI1 SLP091 DENSITY ALT 3600FT=
 Alaska TAF Map

NOAA's National Weather Service
Alaska Aviation Weather Unit
6930 Sand Lake Road
Anchorage, AK 99502-1845
Disclaimer
Credits
Glossary
Privacy Policy
About Us
Career Opportunities
Contact AAWU Internet Services Site last modified: April, 17th 2012